Terminal Aerodrome Forecast
Issued by NWS Mt. Holly, NJ

Home | Current Version | Previous Version | Text Only | Print | Product List | Glossary On
Versions: 1 2 3 4 5 6 7 8 9 10 11 12 13 14 15 16 17 18 19 20
317
FTUS41 KPHI 141720
TAFACY
TAF
KACY 141720Z 1418/1518 34014G20KT P6SM SKC
     FM142300 30006KT P6SM FEW250
     FM150100 00000KT P6SM BKN250
     FM151200 12005KT P6SM OVC070
      TEMPO 1516/1518 -SN OVC035=

USA.gov is the U.S. government's official web portal to all federal, state and local government web resources and services.